createdAt,value
2022-08-30T00:01:05.370Z,2.28
2022-08-30T00:03:41.629Z,2.10
2022-08-30T00:06:10.098Z,2.20
2022-08-30T00:08:38.025Z,2.25
2022-08-30T00:11:09.924Z,2.38
2022-08-30T00:13:38.589Z,2.03
2022-08-30T00:16:06.795Z,2.20
2022-08-30T00:18:35.055Z,2.15
2022-08-30T00:21:04.256Z,2.00
2022-08-30T00:23:30.872Z,2.40
2022-08-30T00:25:57.404Z,2.00
2022-08-30T00:28:24.143Z,2.03
2022-08-30T00:30:51.021Z,2.40
2022-08-30T00:33:18.194Z,2.25
2022-08-30T00:35:45.023Z,1.98
2022-08-30T00:38:13.150Z,2.25
2022-08-30T00:40:44.256Z,2.05
2022-08-30T00:43:19.290Z,2.17
2022-08-30T00:45:47.163Z,2.13
2022-08-30T00:48:13.896Z,2.30
2022-08-30T00:50:43.961Z,2.10
2022-08-30T00:53:19.253Z,2.85
2022-08-30T00:55:46.315Z,2.58
2022-08-30T00:58:21.832Z,2.50
2022-08-30T01:00:54.500Z,2.53
2022-08-30T01:03:21.344Z,2.47
2022-08-30T01:05:50.391Z,2.53
2022-08-30T01:08:17.273Z,2.35
2022-08-30T01:10:44.595Z,2.72
2022-08-30T01:13:13.662Z,2.10
2022-08-30T01:15:41.943Z,2.20
2022-08-30T01:18:11.548Z,2.17
2022-08-30T01:21:35.598Z,2.42
2022-08-30T01:24:03.328Z,2.25
2022-08-30T01:26:31.936Z,2.20
2022-08-30T01:29:02.472Z,2.42
2022-08-30T01:33:55.561Z,2.28
2022-08-30T01:36:22.595Z,2.17
2022-08-30T01:38:54.049Z,2.15
2022-08-30T01:41:46.781Z,2.08
2022-08-30T01:44:14.351Z,2.30
2022-08-30T01:46:45.733Z,2.33
2022-08-30T01:49:15.171Z,2.38
2022-08-30T01:51:42.383Z,2.30
2022-08-30T01:54:09.286Z,2.22
2022-08-30T01:56:36.649Z,2.05
2022-08-30T01:59:03.593Z,2.33
2022-08-30T02:01:37.095Z,2.10
2022-08-30T02:04:04.565Z,2.35
2022-08-30T02:06:31.493Z,1.98
2022-08-30T02:08:58.681Z,2.25
2022-08-30T02:11:25.468Z,2.17
2022-08-30T02:13:52.087Z,2.30
2022-08-30T02:16:22.917Z,2.03
2022-08-30T02:18:51.673Z,1.90
2022-08-30T02:21:18.782Z,2.22
2022-08-30T02:23:46.046Z,1.88
2022-08-30T02:26:13.438Z,2.45
2022-08-30T02:28:42.716Z,2.25
2022-08-30T02:31:16.337Z,2.15
2022-08-30T02:33:46.313Z,2.20
2022-08-30T02:36:13.626Z,2.00
2022-08-30T02:38:40.188Z,2.20
2022-08-30T02:41:06.846Z,1.98
2022-08-30T02:43:33.386Z,2.28
2022-08-30T02:46:00.002Z,2.33
2022-08-30T02:48:26.538Z,2.63
2022-08-30T02:50:53.160Z,2.30
2022-08-30T02:53:22.226Z,2.10
2022-08-30T02:55:49.620Z,2.15
2022-08-30T02:58:16.429Z,2.05
2022-08-30T03:00:43.056Z,2.10
2022-08-30T03:03:09.863Z,2.38
2022-08-30T03:05:39.590Z,2.20
2022-08-30T03:08:08.045Z,2.20
2022-08-30T03:10:35.024Z,1.83
2022-08-30T03:13:01.756Z,2.33
2022-08-30T03:15:29.095Z,2.20
2022-08-30T03:17:55.920Z,2.47
2022-08-30T03:20:24.019Z,2.20
2022-08-30T03:22:50.773Z,2.35
2022-08-30T03:25:18.158Z,2.30
2022-08-30T03:27:44.770Z,2.45
2022-08-30T03:30:12.131Z,2.33
2022-08-30T03:32:40.825Z,2.45
2022-08-30T03:35:10.379Z,2.10
2022-08-30T03:37:37.044Z,2.30
2022-08-30T03:40:07.414Z,2.28
2022-08-30T03:42:34.787Z,2.15
2022-08-30T03:45:02.444Z,2.67
2022-08-30T03:47:29.781Z,2.13
2022-08-30T03:49:56.948Z,2.10
2022-08-30T03:52:23.639Z,2.20
2022-08-30T03:54:50.208Z,2.10
2022-08-30T03:57:20.185Z,2.28
2022-08-30T03:59:51.159Z,2.20
2022-08-30T04:02:17.831Z,2.20
2022-08-30T04:04:44.407Z,2.20
2022-08-30T04:07:11.179Z,2.30
2022-08-30T04:09:37.953Z,2.22
2022-08-30T04:12:04.682Z,2.67
2022-08-30T04:14:31.229Z,2.60
2022-08-30T04:16:58.158Z,2.40
2022-08-30T04:19:24.815Z,2.38
2022-08-30T04:21:51.385Z,2.40
2022-08-30T04:24:18.078Z,2.20
2022-08-30T04:26:44.748Z,2.00
2022-08-30T04:29:16.718Z,2.40
2022-08-30T04:31:44.311Z,2.65
2022-08-30T04:34:11.937Z,2.50
2022-08-30T04:36:38.942Z,2.60
2022-08-30T04:39:06.858Z,2.50
2022-08-30T04:41:33.538Z,2.40
2022-08-30T04:44:03.518Z,2.45
2022-08-30T04:46:30.458Z,2.75
2022-08-30T04:48:57.043Z,2.60
2022-08-30T04:51:23.836Z,2.67
2022-08-30T04:53:50.518Z,2.60
2022-08-30T04:56:22.697Z,2.47
2022-08-30T04:58:52.072Z,2.40
2022-08-30T05:01:25.135Z,2.78
2022-08-30T05:03:54.332Z,2.90
2022-08-30T05:06:22.779Z,2.78
2022-08-30T05:08:49.713Z,2.53
2022-08-30T05:11:17.843Z,3.00
2022-08-30T05:13:44.719Z,2.65
2022-08-30T05:16:17.578Z,2.60
2022-08-30T05:18:45.744Z,2.63
2022-08-30T05:21:17.922Z,2.90
2022-08-30T05:23:45.528Z,2.58
2022-08-30T05:26:16.753Z,2.50
2022-08-30T05:28:44.170Z,3.03
2022-08-30T05:31:15.470Z,2.47
2022-08-30T05:33:44.801Z,2.67
2022-08-30T05:36:13.416Z,2.80
2022-08-30T05:38:40.395Z,2.67
2022-08-30T05:41:10.813Z,2.53
2022-08-30T05:43:39.225Z,2.65
2022-08-30T05:46:11.585Z,2.78
2022-08-30T05:48:39.459Z,2.70
2022-08-30T05:51:15.189Z,2.70
2022-08-30T05:53:42.294Z,3.17
2022-08-30T05:56:14.053Z,2.88
2022-08-30T05:58:40.815Z,2.60
2022-08-30T06:01:08.151Z,3.25
2022-08-30T06:03:35.477Z,2.75
2022-08-30T06:06:03.686Z,2.80
2022-08-30T06:08:30.319Z,2.67
2022-08-30T06:10:56.929Z,2.53
2022-08-30T06:13:23.655Z,2.92
2022-08-30T06:15:51.161Z,3.10
2022-08-30T06:18:18.352Z,3.13
2022-08-30T06:20:51.326Z,2.38
2022-08-30T06:23:18.093Z,2.83
2022-08-30T06:25:45.239Z,3.13
2022-08-30T06:28:12.239Z,2.83
2022-08-30T06:30:41.687Z,3.30
2022-08-30T06:33:08.807Z,2.78
2022-08-30T06:35:46.759Z,3.10
2022-08-30T06:38:23.101Z,3.15
2022-08-30T06:40:51.049Z,2.72
2022-08-30T06:43:17.620Z,2.60
2022-08-30T06:45:44.250Z,2.42
2022-08-30T06:48:10.919Z,3.00
2022-08-30T06:50:37.579Z,2.80
2022-08-30T06:53:05.971Z,2.70
2022-08-30T06:55:33.510Z,3.25
2022-08-30T06:58:00.954Z,3.00
2022-08-30T07:00:28.116Z,2.88
2022-08-30T07:02:55.221Z,2.72
2022-08-30T07:05:23.745Z,2.80
2022-08-30T07:07:53.389Z,2.95
2022-08-30T07:10:21.470Z,3.10
2022-08-30T07:12:48.479Z,2.47
2022-08-30T07:15:17.994Z,2.65
2022-08-30T07:18:03.264Z,2.67
2022-08-30T07:20:40.609Z,2.90
2022-08-30T07:23:08.462Z,3.10
2022-08-30T07:25:37.281Z,2.42
2022-08-30T07:28:05.637Z,2.80
2022-08-30T07:30:33.299Z,2.45
2022-08-30T07:32:59.956Z,2.58
2022-08-30T07:35:27.352Z,2.90
2022-08-30T07:37:53.984Z,2.85
2022-08-30T07:40:20.742Z,2.83
2022-08-30T07:42:47.428Z,3.00
2022-08-30T07:45:14.279Z,2.58
2022-08-30T07:47:41.421Z,2.80
2022-08-30T07:50:08.493Z,2.40
2022-08-30T07:52:35.434Z,2.70
2022-08-30T07:55:02.280Z,2.28
2022-08-30T07:57:33.598Z,2.05
2022-08-30T08:00:01.121Z,2.55
2022-08-30T08:02:27.879Z,2.65
2022-08-30T08:04:54.569Z,2.50
2022-08-30T08:07:21.906Z,2.70
2022-08-30T08:09:48.495Z,2.53
2022-08-30T08:12:15.049Z,2.22
2022-08-30T08:14:41.598Z,2.40
2022-08-30T08:17:08.220Z,2.53
2022-08-30T08:19:35.034Z,2.83
2022-08-30T08:22:20.470Z,2.70
2022-08-30T08:24:49.014Z,2.00
2022-08-30T08:27:15.730Z,2.22
2022-08-30T08:29:42.334Z,2.35
2022-08-30T08:32:08.955Z,2.58
2022-08-30T08:34:36.968Z,2.70
2022-08-30T08:37:03.772Z,2.75
2022-08-30T08:39:30.374Z,2.60
2022-08-30T08:42:34.227Z,2.55
2022-08-30T08:45:13.865Z,2.50
2022-08-30T08:47:47.459Z,3.17
2022-08-30T08:50:20.518Z,2.30
2022-08-30T08:53:24.954Z,2.75
2022-08-30T08:55:57.838Z,2.60
2022-08-30T08:58:28.154Z,2.60
2022-08-30T09:03:26.317Z,2.60
2022-08-30T09:05:53.989Z,2.45
2022-08-30T09:08:23.089Z,2.80
2022-08-30T09:11:01.459Z,2.45
2022-08-30T09:13:28.298Z,2.70
2022-08-30T09:15:57.666Z,2.47
2022-08-30T09:18:49.027Z,2.38
2022-08-30T09:21:27.345Z,2.72
2022-08-30T09:24:04.591Z,2.88
2022-08-30T09:26:37.028Z,2.60
2022-08-30T09:29:05.238Z,2.40
2022-08-30T09:31:45.967Z,2.97
2022-08-30T09:34:18.524Z,2.83
2022-08-30T09:36:46.221Z,2.67
2022-08-30T09:39:27.563Z,2.55
2022-08-30T09:41:55.812Z,2.67
2022-08-30T09:44:31.614Z,2.53
2022-08-30T09:47:01.214Z,2.58
2022-08-30T09:49:35.147Z,2.47
2022-08-30T09:52:12.066Z,2.50
2022-08-30T09:55:21.377Z,2.15
2022-08-30T09:58:08.632Z,2.42
2022-08-30T10:00:49.268Z,2.50
2022-08-30T10:03:44.483Z,2.63
2022-08-30T10:06:46.183Z,2.30
2022-08-30T10:09:33.125Z,2.38
2022-08-30T10:12:13.921Z,2.60
2022-08-30T10:15:10.840Z,2.53
2022-08-30T10:17:59.049Z,2.30
2022-08-30T10:20:36.653Z,2.40
2022-08-30T10:23:25.337Z,2.67
2022-08-30T10:26:05.598Z,2.38
2022-08-30T10:28:44.805Z,2.17
2022-08-30T10:31:39.617Z,2.30
2022-08-30T10:34:12.334Z,2.22
2022-08-30T10:36:44.829Z,2.20
2022-08-30T10:39:19.646Z,2.00
2022-08-30T10:41:50.897Z,2.00
2022-08-30T10:44:34.345Z,2.10
2022-08-30T10:47:38.031Z,1.95
2022-08-30T10:50:15.137Z,2.70
2022-08-30T10:52:53.118Z,2.33
2022-08-30T10:55:25.641Z,1.98
2022-08-30T10:57:52.807Z,2.05
2022-08-30T11:00:30.432Z,2.10
2022-08-30T11:03:36.316Z,1.83
2022-08-30T11:06:16.265Z,2.15
2022-08-30T11:09:01.294Z,2.78
2022-08-30T11:11:54.578Z,2.05
2022-08-30T11:14:25.367Z,1.90
2022-08-30T11:16:54.877Z,2.10
2022-08-30T11:19:26.477Z,2.17
2022-08-30T11:22:14.905Z,2.10
2022-08-30T11:25:00.270Z,2.30
2022-08-30T11:27:45.805Z,2.50
2022-08-30T11:30:24.348Z,2.00
2022-08-30T11:33:11.980Z,1.80
2022-08-30T11:35:48.493Z,2.50
2022-08-30T11:38:27.267Z,2.28
2022-08-30T11:40:56.680Z,2.45
2022-08-30T11:43:36.863Z,2.20
2022-08-30T11:46:28.289Z,2.38
2022-08-30T11:49:23.430Z,2.35
2022-08-30T11:52:27.742Z,2.30
2022-08-30T11:55:32.289Z,2.10
2022-08-30T11:58:04.836Z,2.17
2022-08-30T12:00:40.835Z,2.30
2022-08-30T12:03:16.766Z,2.35
2022-08-30T12:05:45.510Z,2.55
2022-08-30T12:08:20.613Z,2.30
2022-08-30T12:10:54.209Z,2.38
2022-08-30T12:13:38.755Z,2.30
2022-08-30T12:16:05.439Z,2.33
2022-08-30T12:18:49.932Z,2.22
2022-08-30T12:21:22.722Z,2.28
2022-08-30T12:24:07.745Z,2.45
2022-08-30T12:26:43.887Z,2.30
2022-08-30T12:29:18.285Z,2.45
2022-08-30T12:31:48.042Z,2.20
2022-08-30T12:34:26.417Z,2.25
2022-08-30T12:36:55.712Z,2.42
2022-08-30T12:39:24.078Z,2.60
2022-08-30T12:41:51.267Z,2.10
2022-08-30T12:44:22.248Z,2.40
2022-08-30T12:46:55.979Z,2.15
2022-08-30T12:49:29.019Z,2.80
2022-08-30T12:51:57.491Z,1.88
2022-08-30T12:54:29.482Z,2.20
2022-08-30T12:57:19.623Z,2.35
2022-08-30T13:00:01.746Z,2.53
2022-08-30T13:02:44.283Z,2.10
2022-08-30T13:05:32.267Z,2.58
2022-08-30T13:08:31.033Z,2.45
2022-08-30T13:11:08.238Z,2.65
2022-08-30T13:13:44.362Z,2.60
2022-08-30T13:16:26.434Z,2.50
2022-08-30T13:19:32.610Z,2.13
2022-08-30T13:22:00.550Z,2.10
2022-08-30T13:24:27.980Z,2.38
2022-08-30T13:26:57.089Z,2.50
2022-08-30T13:29:27.135Z,2.23
2022-08-30T13:31:54.985Z,2.40
2022-08-30T13:34:22.888Z,2.38
2022-08-30T13:36:53.317Z,2.70
2022-08-30T13:39:20.684Z,2.30
2022-08-30T13:41:48.769Z,2.00
2022-08-30T13:44:15.946Z,2.30
2022-08-30T13:46:52.296Z,2.28
2022-08-30T13:52:21.473Z,2.20
2022-08-30T13:54:53.239Z,2.55
2022-08-30T14:00:17.778Z,2.30
2022-08-30T14:02:51.607Z,2.78
2022-08-30T14:05:46.724Z,2.60
2022-08-30T14:08:44.490Z,2.30
2022-08-30T14:10:58.141Z,2.65
2022-08-30T14:13:28.871Z,2.30
2022-08-30T14:18:44.692Z,2.63
2022-08-30T14:21:11.973Z,2.70
2022-08-30T14:23:38.538Z,2.47
2022-08-30T14:26:12.027Z,2.60
2022-08-30T14:28:38.562Z,2.20
2022-08-30T14:31:05.433Z,2.17
2022-08-30T14:33:33.200Z,2.10
2022-08-30T14:36:00.181Z,2.38
2022-08-30T14:38:26.694Z,2.70
2022-08-30T14:40:53.185Z,2.60
2022-08-30T14:43:19.717Z,2.45
2022-08-30T14:45:46.307Z,2.30
2022-08-30T14:48:14.799Z,2.13
2022-08-30T14:50:41.739Z,2.00
2022-08-30T14:53:08.740Z,2.28
2022-08-30T14:55:36.337Z,2.30
2022-08-30T14:58:04.119Z,2.30
2022-08-30T15:00:30.861Z,2.42
2022-08-30T15:02:57.650Z,2.33
2022-08-30T15:05:24.307Z,2.50
2022-08-30T15:07:51.525Z,2.40
2022-08-30T15:10:20.901Z,2.78
2022-08-30T15:12:48.810Z,2.60
2022-08-30T15:15:20.461Z,2.60
2022-08-30T15:17:48.402Z,2.28
2022-08-30T15:20:18.844Z,2.40
2022-08-30T15:22:46.216Z,2.53
2022-08-30T15:25:14.023Z,2.50
2022-08-30T15:27:40.591Z,2.50
2022-08-30T15:30:07.991Z,2.33
2022-08-30T15:32:37.682Z,2.25
2022-08-30T15:35:05.621Z,2.15
2022-08-30T15:40:01.004Z,2.30
2022-08-30T15:42:32.011Z,2.47
2022-08-30T15:44:59.670Z,2.38
2022-08-30T15:47:26.504Z,2.40
2022-08-30T15:49:58.140Z,2.00
2022-08-30T15:52:26.301Z,2.35
2022-08-30T15:54:53.685Z,2.47
2022-08-30T15:57:21.832Z,2.08
2022-08-30T15:59:48.915Z,2.72
2022-08-30T16:02:15.690Z,2.30
2022-08-30T16:04:43.734Z,2.38
2022-08-30T16:07:10.333Z,2.35
2022-08-30T16:09:38.028Z,2.53
2022-08-30T16:12:06.119Z,2.72
2022-08-30T16:14:33.176Z,2.70
2022-08-30T16:16:59.996Z,2.30
2022-08-30T16:19:27.057Z,2.75
2022-08-30T16:21:53.707Z,2.45
2022-08-30T16:24:22.346Z,2.50
2022-08-30T16:26:49.616Z,2.60
2022-08-30T16:29:16.382Z,2.45
2022-08-30T16:31:44.294Z,2.33
2022-08-30T16:34:14.003Z,2.30
2022-08-30T16:36:40.733Z,2.22
2022-08-30T16:39:08.967Z,2.53
2022-08-30T16:41:36.851Z,2.00
2022-08-30T16:44:05.210Z,2.50
2022-08-30T16:46:33.457Z,2.30
2022-08-30T16:49:02.298Z,2.67
2022-08-30T16:51:31.456Z,2.22
2022-08-30T16:54:00.347Z,2.55
2022-08-30T16:56:29.764Z,2.70
2022-08-30T16:59:01.727Z,2.90
2022-08-30T17:01:31.663Z,2.50
2022-08-30T17:03:58.959Z,2.30
2022-08-30T17:06:26.364Z,2.45
2022-08-30T17:08:56.095Z,2.15
2022-08-30T17:13:49.447Z,2.38
2022-08-30T17:16:25.506Z,2.45
2022-08-30T17:18:55.971Z,2.55
2022-08-30T17:21:26.650Z,2.78
2022-08-30T17:23:53.251Z,2.65
2022-08-30T17:26:20.418Z,2.78
2022-08-30T17:28:47.077Z,2.42
2022-08-30T17:31:14.854Z,2.45
2022-08-30T17:33:43.215Z,2.38
2022-08-30T17:36:12.283Z,3.20
2022-08-30T17:38:40.090Z,4.32
2022-08-30T17:41:12.019Z,2.50
2022-08-30T17:43:39.395Z,2.70
2022-08-30T17:46:09.668Z,2.78
2022-08-30T17:48:36.848Z,2.83
2022-08-30T17:51:04.129Z,2.40
2022-08-30T17:53:30.686Z,3.08
2022-08-30T17:55:58.932Z,2.47
2022-08-30T17:58:26.729Z,3.00
2022-08-30T18:00:57.009Z,2.70
2022-08-30T18:03:24.578Z,2.70
2022-08-30T18:05:51.176Z,2.70
2022-08-30T18:08:17.795Z,2.63
2022-08-30T18:10:44.515Z,2.80
2022-08-30T18:13:12.554Z,2.78
2022-08-30T18:15:39.318Z,2.63
2022-08-30T18:18:21.485Z,3.00
2022-08-30T18:20:48.238Z,2.90
2022-08-30T18:23:15.211Z,2.67
2022-08-30T18:25:42.343Z,2.90
2022-08-30T18:28:09.214Z,3.15
2022-08-30T18:33:09.252Z,3.03
2022-08-30T18:35:37.638Z,2.85
2022-08-30T18:38:04.498Z,2.63
2022-08-30T18:40:31.365Z,2.50
2022-08-30T18:42:58.034Z,3.15
2022-08-30T18:45:25.011Z,2.70
2022-08-30T18:47:51.602Z,3.00
2022-08-30T18:50:18.233Z,2.92
2022-08-30T18:52:46.875Z,2.97
2022-08-30T18:55:13.511Z,3.20
2022-08-30T18:57:40.050Z,3.25
2022-08-30T19:00:07.409Z,2.95
2022-08-30T19:02:34.035Z,2.75
2022-08-30T19:05:00.834Z,2.75
2022-08-30T19:07:34.557Z,3.00
2022-08-30T19:10:05.155Z,2.85
2022-08-30T19:12:31.788Z,2.83
2022-08-30T19:14:59.582Z,3.90
2022-08-30T19:17:26.576Z,2.97
2022-08-30T19:19:54.608Z,2.72
2022-08-30T19:22:27.430Z,3.10
2022-08-30T19:24:57.002Z,3.10
2022-08-30T19:27:37.943Z,3.22
2022-08-30T19:30:20.572Z,2.78
2022-08-30T19:32:50.799Z,3.40
2022-08-30T19:35:18.921Z,2.92
2022-08-30T19:37:46.340Z,2.60
2022-08-30T19:40:16.223Z,2.80
2022-08-30T19:42:46.032Z,2.80
2022-08-30T19:45:15.108Z,2.97
2022-08-30T19:47:41.696Z,3.30
2022-08-30T19:50:08.577Z,2.90
2022-08-30T19:52:35.650Z,2.78
2022-08-30T19:55:04.322Z,2.90
2022-08-30T19:57:31.001Z,3.25
2022-08-30T20:00:00.454Z,2.97
2022-08-30T20:02:27.626Z,3.23
2022-08-30T20:04:54.577Z,3.20
2022-08-30T20:07:25.260Z,2.78
2022-08-30T20:09:54.294Z,2.80
2022-08-30T20:12:21.004Z,3.00
2022-08-30T20:14:48.377Z,2.65
2022-08-30T20:17:15.591Z,2.85
2022-08-30T20:19:42.251Z,4.07
2022-08-30T20:22:11.657Z,3.30
2022-08-30T20:24:39.135Z,2.93
2022-08-30T20:27:06.096Z,2.70
2022-08-30T20:29:34.427Z,3.10
2022-08-30T20:32:03.203Z,3.20
2022-08-30T20:34:29.961Z,3.00
2022-08-30T20:36:57.653Z,2.95
2022-08-30T20:39:25.061Z,3.05
2022-08-30T20:41:53.136Z,2.95
2022-08-30T20:44:20.058Z,3.05
2022-08-30T20:46:48.196Z,3.30
2022-08-30T20:49:15.253Z,3.33
2022-08-30T20:51:42.149Z,2.75
2022-08-30T20:54:13.235Z,2.97
2022-08-30T20:56:40.691Z,2.90
2022-08-30T20:59:10.833Z,3.00
2022-08-30T21:01:38.971Z,2.80
2022-08-30T21:04:28.150Z,2.50
2022-08-30T21:06:54.986Z,3.13
2022-08-30T21:09:21.705Z,3.17
2022-08-30T21:11:49.060Z,2.85
2022-08-30T21:14:16.022Z,2.97
2022-08-30T21:16:42.727Z,3.00
2022-08-30T21:19:09.336Z,3.05
2022-08-30T21:21:36.184Z,3.13
2022-08-30T21:24:10.205Z,3.00
2022-08-30T21:26:39.388Z,2.80
2022-08-30T21:29:06.745Z,3.00
2022-08-30T21:31:33.942Z,2.70
2022-08-30T21:34:00.618Z,2.63
2022-08-30T21:36:46.413Z,2.80
2022-08-30T21:39:21.535Z,3.10
2022-08-30T21:41:49.937Z,3.20
2022-08-30T21:44:20.839Z,2.90
2022-08-30T21:46:48.639Z,3.40
2022-08-30T21:49:18.077Z,3.20
2022-08-30T21:51:46.998Z,3.07
2022-08-30T21:54:15.648Z,3.00
2022-08-30T21:56:44.969Z,3.47
2022-08-30T21:59:12.469Z,3.17
2022-08-30T22:01:41.572Z,3.10
2022-08-30T22:04:10.172Z,2.70
2022-08-30T22:06:39.434Z,2.65
2022-08-30T22:09:09.376Z,3.50
2022-08-30T22:11:37.140Z,2.95
2022-08-30T22:14:05.811Z,2.90
2022-08-30T22:16:32.961Z,2.95
2022-08-30T22:19:01.317Z,3.33
2022-08-30T22:21:31.414Z,3.35
2022-08-30T22:23:58.831Z,2.75
2022-08-30T22:26:26.161Z,3.20
2022-08-30T22:28:54.086Z,3.28
2022-08-30T22:31:23.202Z,3.00
2022-08-30T22:33:50.536Z,3.22
2022-08-30T22:36:23.179Z,2.92
2022-08-30T22:39:00.389Z,3.30
2022-08-30T22:41:31.266Z,3.30
2022-08-30T22:43:58.603Z,3.17
2022-08-30T22:46:33.980Z,3.20
2022-08-30T22:49:02.935Z,3.10
2022-08-30T22:51:31.415Z,2.97
2022-08-30T22:53:58.447Z,2.70
2022-08-30T22:56:26.495Z,3.08
2022-08-30T22:58:54.326Z,3.30
2022-08-30T23:01:30.378Z,3.10
2022-08-30T23:03:58.266Z,3.20
2022-08-30T23:06:25.086Z,2.95
2022-08-30T23:08:51.695Z,2.90
2022-08-30T23:11:19.073Z,3.25
2022-08-30T23:13:46.465Z,3.40
2022-08-30T23:16:15.013Z,3.20
2022-08-30T23:18:43.820Z,3.45
2022-08-30T23:21:13.606Z,3.00
2022-08-30T23:23:59.592Z,2.97
2022-08-30T23:26:44.788Z,3.83
2022-08-30T23:29:30.678Z,3.10
2022-08-30T23:32:15.849Z,3.13
2022-08-30T23:35:00.988Z,2.75
2022-08-30T23:37:46.251Z,3.45
2022-08-30T23:40:34.228Z,2.90
2022-08-30T23:43:19.560Z,2.80
2022-08-30T23:46:05.228Z,3.30
2022-08-30T23:48:52.050Z,3.40
2022-08-30T23:51:37.810Z,3.42
2022-08-30T23:54:24.599Z,3.58
2022-08-30T23:57:09.788Z,3.08
2022-08-30T23:59:55.152Z,3.20
